2°C Temp
1°C Dewpoint
% Humidity
Temperature
5 KM/H
3 MPH
3 KTS
340°
North North
West

Wind Speed
Misty
Conditions
Pressure 1036.92 (hPa) - 30.62 (in)
Visibility 0.7 (mi) - 1.2 (km)

Current Conditions
EGKA
Location 9(mi)
Metar :EGKA 220850Z 34003KT 1200 BR BKN003 02/01 Q1037
Wed 22nd January 08:50 am

Airport
  Metar Aviation API Data Provided by https://www.checkwx.com/ PHP scripts by weather34.com ©2020